AUA730 LQSA-LOWW
Flight info
| Callsign | AUA730 |
|---|---|
| Flight time | 0h 56m |
| Altitude | 36000 |
| Route | BOSNA DCT IRDIV DCT NOVLO DCT ZAG DCT OBUTI OBUTI2W |
| Aircraft | A320/M-SDE3FGHIRWY/LB1 |
Departure
| Time | 2026-05-08 05:21 |
|---|---|
| Airport | Sarajevo International Airport (LQSA) |
Arrival
| Time | 2026-05-08 06:17 |
|---|---|
| Airport | Vienna International Airport (LOWW) |
| Time | Latitude | Longitude | Altitude | Speed | Heading |
|---|---|---|---|---|---|
| 2026-05-08 04:57 | 43.82565 | 18.33564 | 1678 ft | 0 kts | 28° |
| 2026-05-08 05:14 | 43.82546 | 18.33549 | 1678 ft | 4 kts | 35° |
| 2026-05-08 05:14 | 43.82526 | 18.33525 | 1686 ft | 4 kts | 51° |
| 2026-05-08 05:15 | 43.82517 | 18.33509 | 1678 ft | 0 kts | 58° |
| 2026-05-08 05:17 | 43.82510 | 18.33521 | 1683 ft | 6 kts | 131° |
| 2026-05-08 05:17 | 43.82466 | 18.33605 | 1683 ft | 12 kts | 117° |
| 2026-05-08 05:17 | 43.82434 | 18.33691 | 1684 ft | 9 kts | 116° |
| 2026-05-08 05:17 | 43.82402 | 18.33775 | 1687 ft | 16 kts | 117° |
| 2026-05-08 05:18 | 43.82337 | 18.33947 | 1694 ft | 22 kts | 117° |
| 2026-05-08 05:18 | 43.82266 | 18.34137 | 1696 ft | 22 kts | 117° |
| 2026-05-08 05:18 | 43.82195 | 18.34326 | 1699 ft | 22 kts | 117° |
| 2026-05-08 05:18 | 43.82125 | 18.34512 | 1704 ft | 21 kts | 117° |
| 2026-05-08 05:19 | 43.82049 | 18.34621 | 1707 ft | 9 kts | 165° |
| 2026-05-08 05:19 | 43.82015 | 18.34624 | 1708 ft | 0 kts | 186° |
| 2026-05-08 05:20 | 43.81960 | 18.34593 | 1707 ft | 12 kts | 216° |
| 2026-05-08 05:20 | 43.81960 | 18.34479 | 1702 ft | 16 kts | 297° |
| 2026-05-08 05:20 | 43.82076 | 18.34171 | 1694 ft | 70 kts | 297° |
| 2026-05-08 05:20 | 43.82411 | 18.33275 | 1673 ft | 138 kts | 297° |
| 2026-05-08 05:21 | 43.82902 | 18.31938 | 2057 ft | 158 kts | 296° |
| 2026-05-08 05:21 | 43.83531 | 18.30670 | 2711 ft | 169 kts | 326° |
| 2026-05-08 05:21 | 43.84673 | 18.30163 | 3245 ft | 181 kts | 349° |
| 2026-05-08 05:21 | 43.85971 | 18.29726 | 3571 ft | 203 kts | 344° |
| 2026-05-08 05:22 | 43.87405 | 18.29143 | 3881 ft | 227 kts | 343° |
| 2026-05-08 05:22 | 43.88972 | 18.28470 | 4544 ft | 241 kts | 342° |
| 2026-05-08 05:22 | 43.90606 | 18.27756 | 5390 ft | 251 kts | 342° |
| 2026-05-08 05:22 | 43.92285 | 18.27024 | 6346 ft | 255 kts | 341° |
| 2026-05-08 05:23 | 43.93988 | 18.26282 | 7269 ft | 258 kts | 341° |
| 2026-05-08 05:23 | 43.95751 | 18.25662 | 8160 ft | 267 kts | 351° |
| 2026-05-08 05:23 | 43.97673 | 18.25383 | 8752 ft | 286 kts | 353° |
| 2026-05-08 05:23 | 43.99683 | 18.25123 | 9586 ft | 293 kts | 353° |
| 2026-05-08 05:24 | 44.01732 | 18.24860 | 10431 ft | 298 kts | 353° |
| 2026-05-08 05:24 | 44.03807 | 18.24576 | 11274 ft | 301 kts | 350° |
| 2026-05-08 05:24 | 44.05829 | 18.23810 | 12106 ft | 303 kts | 335° |
| 2026-05-08 05:24 | 44.07678 | 18.22345 | 12710 ft | 315 kts | 321° |
| 2026-05-08 05:25 | 44.09267 | 18.20176 | 13027 ft | 334 kts | 309° |
| 2026-05-08 05:25 | 44.10816 | 18.17694 | 13666 ft | 343 kts | 310° |
| 2026-05-08 05:25 | 44.12393 | 18.15178 | 14398 ft | 347 kts | 309° |
| 2026-05-08 05:25 | 44.13991 | 18.12636 | 15138 ft | 350 kts | 309° |
| 2026-05-08 05:26 | 44.15605 | 18.10078 | 15843 ft | 353 kts | 309° |
| 2026-05-08 05:26 | 44.17237 | 18.07500 | 16563 ft | 356 kts | 309° |
| 2026-05-08 05:26 | 44.18886 | 18.04895 | 17270 ft | 360 kts | 309° |
| 2026-05-08 05:26 | 44.20552 | 18.02262 | 17958 ft | 364 kts | 309° |
| 2026-05-08 05:27 | 44.22237 | 17.99598 | 18622 ft | 367 kts | 309° |
| 2026-05-08 05:27 | 44.23931 | 17.96913 | 19227 ft | 370 kts | 308° |
| 2026-05-08 05:27 | 44.25637 | 17.94202 | 19833 ft | 373 kts | 308° |
| 2026-05-08 05:27 | 44.27355 | 17.91467 | 20425 ft | 376 kts | 308° |
| 2026-05-08 05:28 | 44.29084 | 17.88715 | 21012 ft | 379 kts | 308° |
| 2026-05-08 05:28 | 44.30829 | 17.85932 | 21605 ft | 382 kts | 308° |
| 2026-05-08 05:28 | 44.32586 | 17.83131 | 22160 ft | 385 kts | 307° |
| 2026-05-08 05:28 | 44.34356 | 17.80301 | 22743 ft | 388 kts | 307° |
| 2026-05-08 05:29 | 44.36150 | 17.77467 | 23300 ft | 391 kts | 310° |
| 2026-05-08 05:29 | 44.38217 | 17.74925 | 23815 ft | 399 kts | 320° |
| 2026-05-08 05:29 | 44.40539 | 17.72758 | 24292 ft | 403 kts | 322° |
| 2026-05-08 05:29 | 44.42888 | 17.70599 | 24740 ft | 405 kts | 322° |
| 2026-05-08 05:30 | 44.45247 | 17.68421 | 25178 ft | 407 kts | 322° |
| 2026-05-08 05:30 | 44.47617 | 17.66222 | 25609 ft | 410 kts | 322° |
| 2026-05-08 05:30 | 44.50002 | 17.64007 | 26035 ft | 412 kts | 322° |
| 2026-05-08 05:30 | 44.52399 | 17.61780 | 26456 ft | 415 kts | 322° |
| 2026-05-08 05:31 | 44.54810 | 17.59539 | 26881 ft | 417 kts | 322° |
| 2026-05-08 05:31 | 44.57234 | 17.57284 | 27306 ft | 419 kts | 322° |
| 2026-05-08 05:31 | 44.59671 | 17.55018 | 27743 ft | 421 kts | 322° |
| 2026-05-08 05:31 | 44.62116 | 17.52738 | 28207 ft | 422 kts | 321° |
| 2026-05-08 05:32 | 44.64570 | 17.50449 | 28624 ft | 424 kts | 321° |
| 2026-05-08 05:32 | 44.67029 | 17.48156 | 29036 ft | 426 kts | 321° |
| 2026-05-08 05:32 | 44.69503 | 17.45847 | 29403 ft | 428 kts | 321° |
| 2026-05-08 05:32 | 44.71993 | 17.43521 | 29782 ft | 430 kts | 321° |
| 2026-05-08 05:33 | 44.74499 | 17.41175 | 30152 ft | 433 kts | 321° |
| 2026-05-08 05:33 | 44.77018 | 17.38815 | 30480 ft | 435 kts | 321° |
| 2026-05-08 05:33 | 44.79505 | 17.36484 | 30790 ft | 437 kts | 321° |
| 2026-05-08 05:33 | 44.82036 | 17.34106 | 31095 ft | 438 kts | 321° |
| 2026-05-08 05:34 | 44.84577 | 17.31718 | 31424 ft | 440 kts | 321° |
| 2026-05-08 05:34 | 44.87125 | 17.29322 | 31752 ft | 441 kts | 321° |
| 2026-05-08 05:34 | 44.89704 | 17.26895 | 32170 ft | 439 kts | 321° |
| 2026-05-08 05:34 | 44.92210 | 17.24536 | 32618 ft | 438 kts | 321° |
| 2026-05-08 05:35 | 44.94765 | 17.22125 | 33061 ft | 436 kts | 321° |
| 2026-05-08 05:35 | 44.97284 | 17.19743 | 33496 ft | 434 kts | 321° |
| 2026-05-08 05:35 | 44.99786 | 17.17371 | 33933 ft | 433 kts | 321° |
| 2026-05-08 05:35 | 45.02254 | 17.15028 | 34321 ft | 432 kts | 321° |
| 2026-05-08 05:36 | 45.04744 | 17.12663 | 34669 ft | 431 kts | 321° |
| 2026-05-08 05:36 | 45.07235 | 17.10299 | 34999 ft | 430 kts | 321° |
| 2026-05-08 05:36 | 45.09713 | 17.07947 | 35435 ft | 427 kts | 320° |
| 2026-05-08 05:36 | 45.12175 | 17.05609 | 35810 ft | 426 kts | 320° |
| 2026-05-08 05:37 | 45.14632 | 17.03272 | 36037 ft | 426 kts | 320° |
| 2026-05-08 05:37 | 45.19503 | 16.98629 | 36084 ft | 419 kts | 320° |
| 2026-05-08 05:38 | 45.24322 | 16.94007 | 36084 ft | 417 kts | 320° |
| 2026-05-08 05:38 | 45.29142 | 16.89383 | 36087 ft | 417 kts | 320° |
| 2026-05-08 05:39 | 45.33917 | 16.84805 | 36092 ft | 416 kts | 320° |
| 2026-05-08 05:39 | 45.38706 | 16.80197 | 36084 ft | 414 kts | 320° |
| 2026-05-08 05:40 | 45.43473 | 16.75589 | 36083 ft | 415 kts | 320° |
| 2026-05-08 05:40 | 45.48252 | 16.70973 | 36082 ft | 414 kts | 320° |
| 2026-05-08 05:41 | 45.53026 | 16.66354 | 36082 ft | 414 kts | 320° |
| 2026-05-08 05:41 | 45.57795 | 16.61732 | 36081 ft | 414 kts | 320° |
| 2026-05-08 05:42 | 45.62531 | 16.57123 | 36091 ft | 414 kts | 320° |
| 2026-05-08 05:42 | 45.67299 | 16.52482 | 36090 ft | 414 kts | 320° |
| 2026-05-08 05:43 | 45.72063 | 16.47836 | 36092 ft | 414 kts | 320° |
| 2026-05-08 05:43 | 45.76828 | 16.43185 | 36090 ft | 414 kts | 320° |
| 2026-05-08 05:44 | 45.81578 | 16.38528 | 36110 ft | 413 kts | 319° |
| 2026-05-08 05:44 | 45.86332 | 16.33882 | 36120 ft | 415 kts | 323° |
| 2026-05-08 05:45 | 45.91777 | 16.30789 | 36108 ft | 431 kts | 342° |
| 2026-05-08 05:45 | 45.96810 | 16.30167 | 36105 ft | 439 kts | 351° |
| 2026-05-08 05:46 | 46.03904 | 16.29713 | 36094 ft | 439 kts | 351° |
| 2026-05-08 05:46 | 46.10007 | 16.29303 | 36088 ft | 439 kts | 351° |
| 2026-05-08 05:47 | 46.15121 | 16.28956 | 36082 ft | 439 kts | 351° |
| 2026-05-08 05:47 | 46.21191 | 16.28542 | 36077 ft | 439 kts | 351° |
| 2026-05-08 05:48 | 46.27307 | 16.28122 | 36090 ft | 440 kts | 351° |
| 2026-05-08 05:48 | 46.33419 | 16.27705 | 36060 ft | 440 kts | 351° |
| 2026-05-08 05:48 | 46.36483 | 16.27492 | 35810 ft | 440 kts | 350° |
| 2026-05-08 05:49 | 46.39501 | 16.27009 | 35563 ft | 433 kts | 343° |
| 2026-05-08 05:49 | 46.42477 | 16.26299 | 35330 ft | 433 kts | 343° |
| 2026-05-08 05:49 | 46.45445 | 16.25595 | 34979 ft | 429 kts | 343° |
| 2026-05-08 05:49 | 46.48383 | 16.24905 | 34441 ft | 426 kts | 343° |
| 2026-05-08 05:50 | 46.51308 | 16.24221 | 33873 ft | 424 kts | 343° |
| 2026-05-08 05:50 | 46.54202 | 16.23541 | 33333 ft | 420 kts | 343° |
| 2026-05-08 05:50 | 46.57070 | 16.22865 | 32814 ft | 416 kts | 343° |
| 2026-05-08 05:50 | 46.59919 | 16.22194 | 32278 ft | 412 kts | 342° |
| 2026-05-08 05:51 | 46.62698 | 16.21534 | 31772 ft | 408 kts | 342° |
| 2026-05-08 05:51 | 46.65490 | 16.20868 | 31290 ft | 405 kts | 343° |
| 2026-05-08 05:51 | 46.68270 | 16.20202 | 30759 ft | 403 kts | 343° |
| 2026-05-08 05:51 | 46.71035 | 16.19541 | 30265 ft | 400 kts | 343° |
| 2026-05-08 05:52 | 46.73775 | 16.18885 | 29724 ft | 397 kts | 343° |
| 2026-05-08 05:52 | 46.76487 | 16.18236 | 29245 ft | 392 kts | 344° |
| 2026-05-08 05:52 | 46.79163 | 16.17599 | 28772 ft | 388 kts | 344° |
| 2026-05-08 05:52 | 46.81813 | 16.16968 | 28326 ft | 383 kts | 344° |
| 2026-05-08 05:53 | 46.84425 | 16.16343 | 27883 ft | 379 kts | 344° |
| 2026-05-08 05:53 | 46.87014 | 16.15720 | 27451 ft | 374 kts | 344° |
| 2026-05-08 05:53 | 46.89563 | 16.15105 | 27011 ft | 369 kts | 344° |
| 2026-05-08 05:53 | 46.92083 | 16.14501 | 26596 ft | 365 kts | 345° |
| 2026-05-08 05:54 | 46.94579 | 16.13905 | 26180 ft | 361 kts | 345° |
| 2026-05-08 05:54 | 46.97048 | 16.13314 | 25745 ft | 358 kts | 345° |
| 2026-05-08 05:54 | 46.99489 | 16.12724 | 25306 ft | 356 kts | 345° |
| 2026-05-08 05:54 | 47.01894 | 16.12142 | 24859 ft | 354 kts | 345° |
| 2026-05-08 05:55 | 47.04320 | 16.11553 | 24407 ft | 352 kts | 345° |
| 2026-05-08 05:55 | 47.06734 | 16.10963 | 23951 ft | 351 kts | 345° |
| 2026-05-08 05:55 | 47.09133 | 16.10377 | 23454 ft | 350 kts | 346° |
| 2026-05-08 05:55 | 47.11534 | 16.09793 | 22956 ft | 348 kts | 346° |
| 2026-05-08 05:56 | 47.13917 | 16.09216 | 22477 ft | 346 kts | 346° |
| 2026-05-08 05:56 | 47.16286 | 16.08642 | 22028 ft | 344 kts | 346° |
| 2026-05-08 05:56 | 47.18635 | 16.08072 | 21586 ft | 342 kts | 346° |
| 2026-05-08 05:56 | 47.20978 | 16.07504 | 21138 ft | 340 kts | 346° |
| 2026-05-08 05:57 | 47.23309 | 16.06936 | 20685 ft | 338 kts | 347° |
| 2026-05-08 05:57 | 47.25629 | 16.06369 | 20242 ft | 337 kts | 347° |
| 2026-05-08 05:57 | 47.27939 | 16.05804 | 19792 ft | 336 kts | 347° |
| 2026-05-08 05:57 | 47.30235 | 16.05243 | 19365 ft | 335 kts | 347° |
| 2026-05-08 05:58 | 47.32534 | 16.04683 | 18925 ft | 334 kts | 347° |
| 2026-05-08 05:58 | 47.34832 | 16.04141 | 18498 ft | 335 kts | 350° |
| 2026-05-08 05:58 | 47.37166 | 16.04113 | 18021 ft | 339 kts | 3° |
| 2026-05-08 05:58 | 47.39477 | 16.04889 | 17758 ft | 341 kts | 15° |
| 2026-05-08 05:59 | 47.41717 | 16.06017 | 17482 ft | 340 kts | 15° |
| 2026-05-08 05:59 | 47.43927 | 16.07113 | 17207 ft | 338 kts | 15° |
| 2026-05-08 05:59 | 47.46152 | 16.08209 | 16928 ft | 337 kts | 15° |
| 2026-05-08 05:59 | 47.48369 | 16.09300 | 16651 ft | 335 kts | 15° |
| 2026-05-08 06:00 | 47.50576 | 16.10389 | 16372 ft | 333 kts | 15° |
| 2026-05-08 06:00 | 47.52774 | 16.11476 | 16104 ft | 333 kts | 15° |
| 2026-05-08 06:00 | 47.54966 | 16.12563 | 15828 ft | 332 kts | 15° |
| 2026-05-08 06:00 | 47.57149 | 16.13646 | 15555 ft | 330 kts | 15° |
| 2026-05-08 06:01 | 47.59323 | 16.14724 | 15273 ft | 329 kts | 15° |
| 2026-05-08 06:01 | 47.61491 | 16.15800 | 14999 ft | 327 kts | 15° |
| 2026-05-08 06:01 | 47.63647 | 16.16873 | 14739 ft | 326 kts | 15° |
| 2026-05-08 06:01 | 47.65795 | 16.17949 | 14466 ft | 325 kts | 15° |
| 2026-05-08 06:02 | 47.67930 | 16.19025 | 14198 ft | 323 kts | 15° |
| 2026-05-08 06:02 | 47.70056 | 16.20096 | 13937 ft | 322 kts | 15° |
| 2026-05-08 06:02 | 47.72172 | 16.21156 | 13640 ft | 321 kts | 15° |
| 2026-05-08 06:02 | 47.74284 | 16.22210 | 13378 ft | 319 kts | 15° |
| 2026-05-08 06:03 | 47.76283 | 16.23552 | 13118 ft | 321 kts | 28° |
| 2026-05-08 06:03 | 47.78049 | 16.25579 | 12850 ft | 322 kts | 43° |
| 2026-05-08 06:03 | 47.79582 | 16.28009 | 12584 ft | 322 kts | 45° |
| 2026-05-08 06:03 | 47.81099 | 16.30436 | 12319 ft | 320 kts | 45° |
| 2026-05-08 06:04 | 47.82613 | 16.32855 | 12054 ft | 318 kts | 45° |
| 2026-05-08 06:04 | 47.84113 | 16.35252 | 11787 ft | 316 kts | 45° |
| 2026-05-08 06:04 | 47.85608 | 16.37646 | 11530 ft | 314 kts | 45° |
| 2026-05-08 06:04 | 47.87088 | 16.40043 | 11269 ft | 313 kts | 48° |
| 2026-05-08 06:05 | 47.88286 | 16.42753 | 11008 ft | 314 kts | 62° |
| 2026-05-08 06:05 | 47.89046 | 16.45799 | 10699 ft | 313 kts | 73° |
| 2026-05-08 06:05 | 47.89401 | 16.48984 | 10403 ft | 313 kts | 92° |
| 2026-05-08 06:05 | 47.88886 | 16.52081 | 10125 ft | 307 kts | 118° |
| 2026-05-08 06:06 | 47.87568 | 16.54526 | 9784 ft | 301 kts | 143° |
| 2026-05-08 06:06 | 47.85740 | 16.55915 | 9418 ft | 293 kts | 166° |
| 2026-05-08 06:06 | 47.83779 | 16.56728 | 9139 ft | 292 kts | 167° |
| 2026-05-08 06:06 | 47.81818 | 16.57535 | 8868 ft | 291 kts | 166° |
| 2026-05-08 06:07 | 47.79867 | 16.58341 | 8628 ft | 290 kts | 166° |
| 2026-05-08 06:07 | 47.77943 | 16.59138 | 8456 ft | 282 kts | 166° |
| 2026-05-08 06:07 | 47.76091 | 16.59912 | 8281 ft | 272 kts | 166° |
| 2026-05-08 06:07 | 47.74294 | 16.60661 | 8092 ft | 266 kts | 166° |
| 2026-05-08 06:08 | 47.72538 | 16.61391 | 7963 ft | 265 kts | 166° |
| 2026-05-08 06:08 | 47.70761 | 16.62131 | 7733 ft | 264 kts | 166° |
| 2026-05-08 06:08 | 47.69040 | 16.63058 | 7465 ft | 264 kts | 149° |
| 2026-05-08 06:08 | 47.67771 | 16.64998 | 7195 ft | 265 kts | 117° |
| 2026-05-08 06:09 | 47.67324 | 16.67599 | 6909 ft | 261 kts | 86° |
| 2026-05-08 06:09 | 47.67682 | 16.70220 | 6627 ft | 260 kts | 72° |
| 2026-05-08 06:09 | 47.68426 | 16.72621 | 6333 ft | 254 kts | 48° |
| 2026-05-08 06:09 | 47.69798 | 16.74169 | 6046 ft | 247 kts | 19° |
| 2026-05-08 06:10 | 47.71461 | 16.74557 | 5820 ft | 241 kts | 352° |
| 2026-05-08 06:10 | 47.73105 | 16.73996 | 5598 ft | 250 kts | 345° |
| 2026-05-08 06:10 | 47.74801 | 16.73390 | 5374 ft | 248 kts | 344° |
| 2026-05-08 06:10 | 47.76437 | 16.72740 | 5121 ft | 239 kts | 343° |
| 2026-05-08 06:11 | 47.78056 | 16.72064 | 5001 ft | 249 kts | 343° |
| 2026-05-08 06:11 | 47.79747 | 16.71356 | 5007 ft | 255 kts | 343° |
| 2026-05-08 06:11 | 47.81454 | 16.70643 | 4999 ft | 255 kts | 343° |
| 2026-05-08 06:11 | 47.83163 | 16.69929 | 4999 ft | 255 kts | 343° |
| 2026-05-08 06:12 | 47.84843 | 16.69229 | 5002 ft | 248 kts | 343° |
| 2026-05-08 06:12 | 47.86441 | 16.68562 | 4998 ft | 230 kts | 343° |
| 2026-05-08 06:12 | 47.87945 | 16.67932 | 4843 ft | 221 kts | 343° |
| 2026-05-08 06:12 | 47.89410 | 16.67317 | 4572 ft | 217 kts | 343° |
| 2026-05-08 06:13 | 47.90847 | 16.66714 | 4297 ft | 213 kts | 343° |
| 2026-05-08 06:13 | 47.92261 | 16.66121 | 4020 ft | 209 kts | 343° |
| 2026-05-08 06:13 | 47.93658 | 16.65536 | 3732 ft | 209 kts | 344° |
| 2026-05-08 06:13 | 47.95056 | 16.64948 | 3449 ft | 209 kts | 343° |
| 2026-05-08 06:14 | 47.96432 | 16.64371 | 3167 ft | 202 kts | 343° |
| 2026-05-08 06:14 | 47.97757 | 16.63814 | 2906 ft | 192 kts | 343° |
| 2026-05-08 06:14 | 47.98997 | 16.63294 | 2658 ft | 178 kts | 344° |
| 2026-05-08 06:14 | 48.00123 | 16.62816 | 2454 ft | 157 kts | 344° |
| 2026-05-08 06:15 | 48.01108 | 16.62402 | 2233 ft | 139 kts | 343° |
| 2026-05-08 06:15 | 48.02009 | 16.62024 | 2044 ft | 130 kts | 343° |
| 2026-05-08 06:15 | 48.02874 | 16.61658 | 1876 ft | 128 kts | 343° |
| 2026-05-08 06:15 | 48.03734 | 16.61295 | 1699 ft | 128 kts | 343° |
| 2026-05-08 06:16 | 48.04585 | 16.60938 | 1510 ft | 125 kts | 344° |
| 2026-05-08 06:16 | 48.05419 | 16.60587 | 1345 ft | 126 kts | 343° |
| 2026-05-08 06:16 | 48.06270 | 16.60230 | 1159 ft | 129 kts | 342° |
| 2026-05-08 06:16 | 48.07139 | 16.59863 | 995 ft | 130 kts | 342° |
| 2026-05-08 06:17 | 48.08853 | 16.59135 | 673 ft | 127 kts | 341° |
| 2026-05-08 06:17 | 48.09641 | 16.58794 | 613 ft | 91 kts | 344° |
| 2026-05-08 06:17 | 48.09970 | 16.58648 | 616 ft | 30 kts | 331° |
| 2026-05-08 06:18 | 48.10071 | 16.58467 | 615 ft | 7 kts | 297° |
| 2026-05-08 06:18 | 48.10074 | 16.58457 | 610 ft | 0 kts | 299° |
| 2026-05-08 06:19 | 48.10100 | 16.58388 | 614 ft | 17 kts | 299° |
| 2026-05-08 06:19 | 48.10199 | 16.58291 | 620 ft | 19 kts | 343° |
| 2026-05-08 06:19 | 48.10332 | 16.58234 | 612 ft | 21 kts | 344° |
| 2026-05-08 06:19 | 48.10478 | 16.58172 | 619 ft | 23 kts | 344° |
| 2026-05-08 06:20 | 48.10635 | 16.58104 | 613 ft | 24 kts | 343° |
| 2026-05-08 06:20 | 48.10801 | 16.58032 | 620 ft | 25 kts | 347° |
| 2026-05-08 06:20 | 48.10949 | 16.57975 | 613 ft | 20 kts | 344° |
| 2026-05-08 06:20 | 48.11078 | 16.57913 | 619 ft | 17 kts | 333° |
| 2026-05-08 06:21 | 48.11144 | 16.57758 | 620 ft | 19 kts | 296° |
| 2026-05-08 06:21 | 48.11184 | 16.57636 | 610 ft | 10 kts | 296° |
| 2026-05-08 06:21 | 48.11218 | 16.57529 | 612 ft | 13 kts | 296° |
| 2026-05-08 06:21 | 48.11240 | 16.57462 | 621 ft | 0 kts | 296° |
| 2026-05-08 06:22 | 48.11249 | 16.57434 | 610 ft | 9 kts | 296° |
| 2026-05-08 06:22 | 48.11284 | 16.57343 | 617 ft | 11 kts | 317° |
| 2026-05-08 06:22 | 48.11362 | 16.57367 | 619 ft | 13 kts | 25° |
| 2026-05-08 06:22 | 48.11440 | 16.57346 | 614 ft | 14 kts | 303° |
| 2026-05-08 06:23 | 48.11486 | 16.57207 | 619 ft | 16 kts | 296° |
| 2026-05-08 06:23 | 48.11534 | 16.57058 | 610 ft | 17 kts | 296° |
| 2026-05-08 06:23 | 48.11587 | 16.56893 | 613 ft | 18 kts | 296° |
| 2026-05-08 06:23 | 48.11639 | 16.56735 | 623 ft | 14 kts | 296° |
| 2026-05-08 06:24 | 48.11676 | 16.56700 | 612 ft | 7 kts | 20° |
| 2026-05-08 06:24 | 48.11717 | 16.56729 | 610 ft | 6 kts | 26° |
| 2026-05-08 06:24 | 48.11727 | 16.56737 | 610 ft | 2 kts | 25° |
| 2026-05-08 06:24 | 48.11730 | 16.56738 | 610 ft | 0 kts | 25° |